Athlestan, Iowa
Current Conditions -  °F | °C
As of 10:35 PM on Saturday 22 Nov 2014 (Local Time) from KCSQ Reporting Station
Overcast Overcast  
Wind Chill: 11°   Ceiling: 800
Heat Index: 11°   Visibility: 10mi
Dew Point: 11°   Wind: 17mph
Humidity: 100%   Direction: 200°SSW
Pressure: 29.65"   Gusts: NA
Location:  40.6485°N, 94.5286°W
Report Text: KCSQ 230435Z AUTO 20015KT 10SM OVC008 11/11 A2965 RMK AO2
Loading
Personal Weather Stations






























Interactive Weather Map New forecast layout! Learn more

10-Day Weather Forecast

Advertisements
Track Severe Weather on mobile